Trabzon — 9HA2783 — position and weather

sailwx.info

Track history (hours):
 
Tides and Currents Weather Stations Pressure Air Temp Water Temp Dewpoint Dewpoint Depression Visibility Wind Speed Wind Dir Waves Ship Positions

Trabzon

Last reported at 2015-Apr-26 23:27 UTC. Time now 2015-Apr-28 03:48 UTC.
Position N 66°11' E 012°49'.

Length 229 m; draft 7.5 m.

Type: Cargo ship. MMSI: 215679000.

Date/timePositionNaut miles runAvg speedWind from/ knotsBaromVisibWave heightAir tempDewpointWater temp
2015-Apr-26 23:27N 66°11' E 012°49'8 9.0
2015-Apr-26 22:33N 66°15' E 012°32'4 4.3
2015-Apr-26 21:33N 66°16' E 012°22'  
2015-Apr-24 00:31N 54°30' E 005°04'1412.3
2015-Apr-23 23:22N 54°17' E 004°55'1112.7
2015-Apr-23 22:31N 54°06' E 004°53'1212.7
2015-Apr-23 21:33N 53°54' E 004°53'1312.9
2015-Apr-23 20:33N 53°41' E 004°52'1313.4
2015-Apr-23 19:33N 53°28' E 004°45'1413.6
2015-Apr-23 18:33N 53°16' E 004°36'1413.1
2015-Apr-23 17:32N 53°04' E 004°25'1312.5
2015-Apr-23 16:30N 52°53' E 004°16'1612.1
2015-Apr-23 15:11N 52°38' E 004°06'1011.2
2015-Apr-23 14:17N 52°30' E 004°17'912.0
2015-Apr-23 13:33N 52°28' E 004°31'3 2.7
2015-Apr-23 12:31N 52°28' E 004°36'0 0.0
2015-Apr-23 11:31N 52°28' E 004°36'0 0.0
2015-Apr-23 10:31N 52°28' E 004°36'0 0.0
2015-Apr-23 09:25N 52°28' E 004°36'0 0.0
2015-Apr-23 08:31N 52°28' E 004°36'0 0.0
2015-Apr-23 07:28N 52°28' E 004°36'0 0.0
2015-Apr-23 06:31N 52°28' E 004°36'0 0.0
2015-Apr-23 05:31N 52°28' E 004°36'0 0.0
2015-Apr-23 04:31N 52°28' E 004°36'0 0.0
2015-Apr-23 03:28N 52°28' E 004°36'0 0.0
2015-Apr-23 02:31N 52°28' E 004°36'0 0.0
2015-Apr-23 01:31N 52°28' E 004°36'0 0.0
2015-Apr-23 00:31N 52°28' E 004°36'0 0.0
2015-Apr-22 23:28N 52°28' E 004°36'0 0.0
2015-Apr-22 22:25N 52°28' E 004°36'0 0.0
2015-Apr-22 21:31N 52°28' E 004°36'0 0.0
2015-Apr-22 20:31N 52°28' E 004°36'0 0.0
2015-Apr-22 19:25N 52°28' E 004°36'0 0.0
2015-Apr-22 18:31N 52°28' E 004°36'0 0.0
2015-Apr-22 17:31N 52°28' E 004°36'0 0.0
2015-Apr-22 16:31N 52°28' E 004°36'0 0.0
2015-Apr-22 15:31N 52°28' E 004°36'0 0.0
2015-Apr-22 14:31N 52°28' E 004°36'0 0.0
2015-Apr-22 13:31N 52°28' E 004°36'0 0.0
2015-Apr-22 12:31N 52°28' E 004°36'0 0.0
2015-Apr-22 11:28N 52°28' E 004°36'0 0.0
2015-Apr-22 10:31N 52°28' E 004°36'0 0.0
2015-Apr-22 09:31N 52°28' E 004°36'0 0.0
2015-Apr-22 08:31N 52°28' E 004°36'0 0.0
2015-Apr-22 07:31N 52°28' E 004°36'0 0.0
2015-Apr-22 06:31N 52°28' E 004°36'0 0.0
2015-Apr-22 05:31N 52°28' E 004°36'0 0.0
2015-Apr-22 04:31N 52°28' E 004°36'0 0.0
2015-Apr-22 03:19N 52°28' E 004°36'0 0.0
2015-Apr-22 02:31N 52°28' E 004°36'0 0.0
2015-Apr-22 01:31N 52°28' E 004°36'0 0.0
2015-Apr-22 00:31N 52°28' E 004°36'0 0.0
2015-Apr-21 23:31N 52°28' E 004°36'0 0.0
2015-Apr-21 22:31N 52°28' E 004°36'0 0.0
2015-Apr-21 21:31N 52°28' E 004°36'0 0.0
2015-Apr-21 20:31N 52°28' E 004°36'0 0.0
2015-Apr-21 19:31N 52°28' E 004°36'0 0.0
2015-Apr-21 18:34N 52°28' E 004°36'0 0.2
2015-Apr-21 17:32N 52°28' E 004°35'0 0.0
2015-Apr-21 16:32N 52°28' E 004°35'0 0.0
2015-Apr-21 15:29N 52°28' E 004°35'0 0.0
2015-Apr-21 14:29N 52°28' E 004°35'0 0.0
2015-Apr-21 13:32N 52°28' E 004°35'0 0.0
2015-Apr-21 12:32N 52°28' E 004°35'0 0.0
2015-Apr-21 11:32N 52°28' E 004°35'0 0.0
2015-Apr-21 10:29N 52°28' E 004°35'0 0.0
2015-Apr-21 09:32N 52°28' E 004°35'0 0.0
2015-Apr-21 08:23N 52°28' E 004°35'0 0.0
2015-Apr-21 07:14N 52°28' E 004°35'0 0.0
2015-Apr-21 06:26N 52°28' E 004°35'0 0.0
2015-Apr-21 05:32N 52°28' E 004°35'0 0.0
2015-Apr-21 04:32N 52°28' E 004°35'0 0.0
2015-Apr-21 03:32N 52°28' E 004°35'0 0.0
2015-Apr-21 02:20N 52°28' E 004°35'0 0.0
2015-Apr-21 01:29N 52°28' E 004°35'0 0.3
2015-Apr-21 00:33N 52°28' E 004°35'6 5.5
2015-Apr-20 23:33N 52°29' E 004°26'7 6.8
2015-Apr-20 22:33N 52°30' E 004°15'8 7.9
2015-Apr-20 21:33N 52°30' E 004°02'8 8.4
2015-Apr-20 20:33N 52°30' E 003°48'4 3.0
2015-Apr-20 19:22N 52°31' E 003°43'1 0.6
2015-Apr-20 17:33N 52°30' E 003°42'7 6.7
2015-Apr-20 16:31N 52°36' E 003°49'9 8.7
2015-Apr-20 15:28N 52°44' E 003°55'18 9.6
2015-Apr-20 13:33N 53°01' E 004°07'1211.5
2015-Apr-20 12:33N 53°09' E 004°21'1111.2
2015-Apr-20 11:33N 53°19' E 004°29'1311.1
2015-Apr-20 10:24N 53°31' E 004°36'910.6
2015-Apr-20 09:33N 53°40' E 004°41'1310.7
2015-Apr-20 08:23N 53°52' E 004°46'911.1
2015-Apr-20 07:33N 54°00' E 004°51'1111.0
2015-Apr-20 06:33N 54°11' E 004°55'1311.3
2015-Apr-20 05:26N 54°23' E 005°01'  
Track history (hours):
 
Tides and Currents Weather Stations Pressure Air Temp Water Temp Dewpoint Dewpoint Depression Visibility Wind Speed Wind Dir Waves Ship Positions

Trabzon

Last reported at 2015-Apr-26 23:27 UTC. Time now 2015-Apr-28 03:48 UTC.
Position N 66°11' E 012°49'.

Length 229 m; draft 7.5 m.

Type: Cargo ship. MMSI: 215679000.

Date/timePositionNaut miles runAvg speedWind from/ knotsBaromVisibWave heightAir tempDewpointWater temp
2015-Apr-26 23:27N 66°11' E 012°49'8 9.0
2015-Apr-26 22:33N 66°15' E 012°32'4 4.3
2015-Apr-26 21:33N 66°16' E 012°22'  
2015-Apr-24 00:31N 54°30' E 005°04'1412.3
2015-Apr-23 23:22N 54°17' E 004°55'1112.7
2015-Apr-23 22:31N 54°06' E 004°53'1212.7
2015-Apr-23 21:33N 53°54' E 004°53'1312.9
2015-Apr-23 20:33N 53°41' E 004°52'1313.4
2015-Apr-23 19:33N 53°28' E 004°45'1413.6
2015-Apr-23 18:33N 53°16' E 004°36'1413.1
2015-Apr-23 17:32N 53°04' E 004°25'1312.5
2015-Apr-23 16:30N 52°53' E 004°16'1612.1
2015-Apr-23 15:11N 52°38' E 004°06'1011.2
2015-Apr-23 14:17N 52°30' E 004°17'912.0
2015-Apr-23 13:33N 52°28' E 004°31'3 2.7
2015-Apr-23 12:31N 52°28' E 004°36'0 0.0
2015-Apr-23 11:31N 52°28' E 004°36'0 0.0
2015-Apr-23 10:31N 52°28' E 004°36'0 0.0
2015-Apr-23 09:25N 52°28' E 004°36'0 0.0
2015-Apr-23 08:31N 52°28' E 004°36'0 0.0
2015-Apr-23 07:28N 52°28' E 004°36'0 0.0
2015-Apr-23 06:31N 52°28' E 004°36'0 0.0
2015-Apr-23 05:31N 52°28' E 004°36'0 0.0
2015-Apr-23 04:31N 52°28' E 004°36'0 0.0
2015-Apr-23 03:28N 52°28' E 004°36'0 0.0
2015-Apr-23 02:31N 52°28' E 004°36'0 0.0
2015-Apr-23 01:31N 52°28' E 004°36'0 0.0
2015-Apr-23 00:31N 52°28' E 004°36'0 0.0
2015-Apr-22 23:28N 52°28' E 004°36'0 0.0
2015-Apr-22 22:25N 52°28' E 004°36'0 0.0
2015-Apr-22 21:31N 52°28' E 004°36'0 0.0
2015-Apr-22 20:31N 52°28' E 004°36'0 0.0
2015-Apr-22 19:25N 52°28' E 004°36'0 0.0
2015-Apr-22 18:31N 52°28' E 004°36'0 0.0
2015-Apr-22 17:31N 52°28' E 004°36'0 0.0
2015-Apr-22 16:31N 52°28' E 004°36'0 0.0
2015-Apr-22 15:31N 52°28' E 004°36'0 0.0
2015-Apr-22 14:31N 52°28' E 004°36'0 0.0
2015-Apr-22 13:31N 52°28' E 004°36'0 0.0
2015-Apr-22 12:31N 52°28' E 004°36'0 0.0
2015-Apr-22 11:28N 52°28' E 004°36'0 0.0
2015-Apr-22 10:31N 52°28' E 004°36'0 0.0
2015-Apr-22 09:31N 52°28' E 004°36'0 0.0
2015-Apr-22 08:31N 52°28' E 004°36'0 0.0
2015-Apr-22 07:31N 52°28' E 004°36'0 0.0
2015-Apr-22 06:31N 52°28' E 004°36'0 0.0
2015-Apr-22 05:31N 52°28' E 004°36'0 0.0
2015-Apr-22 04:31N 52°28' E 004°36'0 0.0
2015-Apr-22 03:19N 52°28' E 004°36'0 0.0
2015-Apr-22 02:31N 52°28' E 004°36'0 0.0
2015-Apr-22 01:31N 52°28' E 004°36'0 0.0
2015-Apr-22 00:31N 52°28' E 004°36'0 0.0
2015-Apr-21 23:31N 52°28' E 004°36'0 0.0
2015-Apr-21 22:31N 52°28' E 004°36'0 0.0
2015-Apr-21 21:31N 52°28' E 004°36'0 0.0
2015-Apr-21 20:31N 52°28' E 004°36'0 0.0
2015-Apr-21 19:31N 52°28' E 004°36'0 0.0
2015-Apr-21 18:34N 52°28' E 004°36'0 0.2
2015-Apr-21 17:32N 52°28' E 004°35'0 0.0
2015-Apr-21 16:32N 52°28' E 004°35'0 0.0
2015-Apr-21 15:29N 52°28' E 004°35'0 0.0
2015-Apr-21 14:29N 52°28' E 004°35'0 0.0
2015-Apr-21 13:32N 52°28' E 004°35'0 0.0
2015-Apr-21 12:32N 52°28' E 004°35'0 0.0
2015-Apr-21 11:32N 52°28' E 004°35'0 0.0
2015-Apr-21 10:29N 52°28' E 004°35'0 0.0
2015-Apr-21 09:32N 52°28' E 004°35'0 0.0
2015-Apr-21 08:23N 52°28' E 004°35'0 0.0
2015-Apr-21 07:14N 52°28' E 004°35'0 0.0
2015-Apr-21 06:26N 52°28' E 004°35'0 0.0
2015-Apr-21 05:32N 52°28' E 004°35'0 0.0
2015-Apr-21 04:32N 52°28' E 004°35'0 0.0
2015-Apr-21 03:32N 52°28' E 004°35'0 0.0
2015-Apr-21 02:20N 52°28' E 004°35'0 0.0
2015-Apr-21 01:29N 52°28' E 004°35'0 0.3
2015-Apr-21 00:33N 52°28' E 004°35'6 5.5
2015-Apr-20 23:33N 52°29' E 004°26'7 6.8
2015-Apr-20 22:33N 52°30' E 004°15'8 7.9
2015-Apr-20 21:33N 52°30' E 004°02'8 8.4
2015-Apr-20 20:33N 52°30' E 003°48'4 3.0
2015-Apr-20 19:22N 52°31' E 003°43'1 0.6
2015-Apr-20 17:33N 52°30' E 003°42'7 6.7
2015-Apr-20 16:31N 52°36' E 003°49'9 8.7
2015-Apr-20 15:28N 52°44' E 003°55'18 9.6
2015-Apr-20 13:33N 53°01' E 004°07'1211.5
2015-Apr-20 12:33N 53°09' E 004°21'1111.2
2015-Apr-20 11:33N 53°19' E 004°29'1311.1
2015-Apr-20 10:24N 53°31' E 004°36'910.6
2015-Apr-20 09:33N 53°40' E 004°41'1310.7
2015-Apr-20 08:23N 53°52' E 004°46'911.1
2015-Apr-20 07:33N 54°00' E 004°51'1111.0
2015-Apr-20 06:33N 54°11' E 004°55'1311.3
2015-Apr-20 05:26N 54°23' E 005°01'  

Dump ship's entire track history